Time;durP1;ratioP1;P1;durP2;ratioP2;P2;SDS_P1;SDS_P2;PMS_P1;PMS_P2;Temp;Humidity;BMP_temperature;BMP_pressure;BME280_temperature;BME280_humidity;BME280_pressure;Samples;Min_cycle;Max_cycle;Signal;HPM_P1;HPM_P2
2021/10/08 00:00:43;;;;;;;10.18;7.15;;;;;;;5.07;55.85;101607.88;1664111;83;21544;-62
2021/10/08 00:03:09;;;;;;;12.68;7.00;;;;;;;5.04;55.99;101608.70;1732943;80;21421;-62
2021/10/08 00:05:36;;;;;;;15.63;7.65;;;;;;;4.98;56.14;101604.72;1732299;80;20982;-62
2021/10/08 00:08:04;;;;;;;10.05;6.25;;;;;;;4.93;56.34;101609.44;1730811;80;21630;-62
2021/10/08 00:10:31;;;;;;;13.28;7.10;;;;;;;4.87;56.45;101609.80;1729203;80;21814;-61
2021/10/08 00:12:59;;;;;;;13.05;6.90;;;;;;;4.80;56.51;101605.40;1727677;80;21452;-62
2021/10/08 00:15:26;;;;;;;13.93;8.05;;;;;;;4.74;56.69;101614.42;1666057;83;22044;-62
2021/10/08 00:17:53;;;;;;;9.48;6.92;;;;;;;4.67;56.88;101606.97;1700579;82;21523;-61
2021/10/08 00:20:19;;;;;;;14.47;6.60;;;;;;;4.61;57.17;101608.61;1731639;80;21436;-62
2021/10/08 00:22:46;;;;;;;9.00;7.17;;;;;;;4.56;57.27;101612.47;1676745;84;21534;-62
2021/10/08 00:25:13;;;;;;;14.20;7.87;;;;;;;4.51;57.49;101604.14;1731512;80;21432;-63
2021/10/08 00:27:40;;;;;;;12.35;7.70;;;;;;;4.46;57.70;101613.19;1736036;80;22000;-62
2021/10/08 00:30:07;;;;;;;11.90;7.47;;;;;;;4.41;57.80;101604.02;1737746;80;21618;-62
2021/10/08 00:32:35;;;;;;;12.28;6.65;;;;;;;4.36;57.93;101612.19;1659019;85;21602;-62
2021/10/08 00:35:02;;;;;;;11.93;7.67;;;;;;;4.32;58.00;101610.39;1721248;80;21499;-62
2021/10/08 00:37:30;;;;;;;8.78;6.95;;;;;;;4.28;58.26;101606.87;1728030;80;21586;-62
2021/10/08 00:39:57;;;;;;;8.23;6.95;;;;;;;4.25;58.22;101609.85;1681797;83;21835;-63
2021/10/08 00:42:26;;;;;;;11.68;7.83;;;;;;;4.21;58.29;101608.93;1740525;80;21540;-62
2021/10/08 00:44:54;;;;;;;15.20;7.60;;;;;;;4.17;58.42;101610.18;1739797;80;21506;-63
2021/10/08 00:47:21;;;;;;;15.53;8.05;;;;;;;4.12;58.49;101608.79;1740615;80;21541;-63
2021/10/08 00:49:49;;;;;;;11.17;7.80;;;;;;;4.05;58.75;101603.94;1743341;80;21600;-62
2021/10/08 00:52:16;;;;;;;12.73;7.05;;;;;;;4.02;58.73;101605.61;1661881;85;21867;-61
2021/10/08 00:54:43;;;;;;;12.23;7.27;;;;;;;4.00;58.84;101610.79;1736142;80;21574;-63
2021/10/08 00:57:09;;;;;;;13.13;7.47;;;;;;;3.95;59.11;101609.83;1750068;80;21523;-63
2021/10/08 00:59:37;;;;;;;11.18;6.78;;;;;;;3.94;58.90;101605.50;1732438;80;21530;-62
2021/10/08 01:02:04;;;;;;;9.70;6.90;;;;;;;3.90;58.96;101613.67;1734174;80;21155;-62
2021/10/08 01:04:33;;;;;;;;;;;;;;;3.85;59.07;101610.11;1746175;80;21679;-64
2021/10/08 01:07:00;;;;;;;15.25;7.40;;;;;;;3.82;59.69;101610.48;1730877;80;20420;-62
2021/10/08 01:09:26;;;;;;;13.58;7.47;;;;;;;3.77;59.26;101603.92;1664128;83;21124;-62
2021/10/08 01:11:53;;;;;;;12.68;7.70;;;;;;;3.77;59.38;101598.72;1667508;83;21618;-63
2021/10/08 01:14:21;;;;;;;12.33;7.17;;;;;;;3.76;59.47;101600.86;1686378;80;21538;-62
2021/10/08 01:16:49;;;;;;;14.00;7.37;;;;;;;3.73;59.66;101607.73;1740574;80;21915;-62
2021/10/08 01:19:17;;;;;;;15.45;8.03;;;;;;;3.72;59.61;101606.00;1744929;80;21479;-62
2021/10/08 01:21:45;;;;;;;11.28;7.08;;;;;;;3.68;59.81;101609.84;1677361;83;21587;-62
2021/10/08 01:24:13;;;;;;;11.38;6.78;;;;;;;3.70;59.82;101615.07;1739173;80;21531;-62
2021/10/08 01:26:40;;;;;;;16.57;6.20;;;;;;;3.72;60.32;101610.77;1754622;80;21061;-63
2021/10/08 01:29:10;;;;;;;11.10;6.30;;;;;;;3.90;60.59;101608.91;1686086;83;21982;-64
2021/10/08 01:31:37;;;;;;;10.50;6.90;;;;;;;3.97;60.44;101613.77;1748684;80;21507;-63
2021/10/08 01:34:04;;;;;;;10.95;6.78;;;;;;;3.96;60.23;101608.99;1706227;82;21009;-63
2021/10/08 01:36:33;;;;;;;9.43;6.55;;;;;;;3.95;60.38;101604.62;1733367;80;21648;-63
2021/10/08 01:39:01;;;;;;;12.20;7.55;;;;;;;3.96;60.12;101606.83;1739162;80;21452;-63
2021/10/08 01:41:29;;;;;;;8.88;6.92;;;;;;;3.94;59.90;101614.61;1732403;80;21401;-62
2021/10/08 01:43:56;;;;;;;10.03;6.60;;;;;;;3.90;59.82;101609.77;1746429;80;21495;-60
2021/10/08 01:46:23;;;;;;;13.03;7.80;;;;;;;3.85;59.78;101610.11;1680053;84;21458;-60
2021/10/08 01:48:50;;;;;;;11.40;7.27;;;;;;;3.79;59.82;101610.02;1732925;80;21459;-61
2021/10/08 01:51:18;;;;;;;9.93;7.33;;;;;;;3.76;59.89;101613.86;1742530;80;21598;-61
2021/10/08 01:53:46;;;;;;;9.40;6.92;;;;;;;3.72;59.85;101613.37;1732004;80;21849;-62
2021/10/08 01:56:13;;;;;;;9.58;6.83;;;;;;;3.68;59.79;101616.77;1653825;85;21453;-61
2021/10/08 01:58:48;;;;;;;9.43;6.85;;;;;;;3.64;59.89;101617.14;1738307;80;21030;-61
2021/10/08 02:01:15;;;;;;;9.88;7.22;;;;;;;3.60;59.88;101618.34;1657885;83;21532;-61
2021/10/08 02:03:46;;;;;;;10.75;6.53;;;;;;;3.56;60.17;101624.35;1735248;80;21515;-61
2021/10/08 02:06:10;;;;;;;15.15;7.03;;;;;;;3.53;60.38;101624.31;1726945;80;21842;-61
2021/10/08 02:08:39;;;;;;;9.93;6.30;;;;;;;3.50;60.44;101623.42;1732330;80;21645;-61
2021/10/08 02:11:09;;;;;;;10.68;7.10;;;;;;;3.47;60.61;101625.95;1731249;80;21540;-60
2021/10/08 02:13:36;;;;;;;13.45;7.42;;;;;;;3.44;60.74;101631.09;1746253;80;21558;-60
2021/10/08 02:16:04;;;;;;;13.80;7.15;;;;;;;3.44;60.77;101634.12;1669864;83;21614;-60
2021/10/08 02:18:30;;;;;;;14.13;6.05;;;;;;;3.41;60.92;101627.16;1731688;80;21722;-61
2021/10/08 02:20:58;;;;;;;;;;;;;;;3.43;61.45;101629.35;1735699;80;21515;-60
2021/10/08 02:23:25;;;;;;;11.43;6.15;;;;;;;3.58;61.72;101630.05;1723578;80;20480;-60
2021/10/08 02:25:52;;;;;;;12.37;7.35;;;;;;;3.62;61.19;101634.89;1670150;84;21354;-60
2021/10/08 02:28:19;;;;;;;12.20;6.70;;;;;;;3.59;60.91;101633.09;1743598;80;21415;-60
2021/10/08 02:30:46;;;;;;;9.33;7.05;;;;;;;3.55;60.91;101633.02;1706288;82;21846;-60
2021/10/08 02:33:13;;;;;;;11.10;6.92;;;;;;;3.53;60.89;101639.92;1729731;80;21419;-59
2021/10/08 02:35:40;;;;;;;13.70;7.03;;;;;;;3.50;60.82;101639.02;1730120;80;21543;-60
2021/10/08 02:38:07;;;;;;;9.90;6.77;;;;;;;3.47;60.78;101644.16;1724450;80;21470;-61
2021/10/08 02:40:34;;;;;;;12.40;7.22;;;;;;;3.48;61.05;101642.42;1743720;80;21734;-60
2021/10/08 02:43:02;;;;;;;12.43;7.03;;;;;;;3.50;60.95;101642.02;1699597;83;21802;-60
2021/10/08 02:45:30;;;;;;;12.60;7.87;;;;;;;3.49;60.82;101647.66;1703953;82;21578;-60
2021/10/08 02:47:57;;;;;;;8.65;7.65;;;;;;;3.48;60.91;101651.13;1714905;82;20993;-59
2021/10/08 02:50:26;;;;;;;11.10;6.67;;;;;;;3.48;61.01;101654.13;1708672;82;21573;-60
2021/10/08 02:52:53;;;;;;;11.60;6.45;;;;;;;3.49;60.99;101653.30;1714226;82;21037;-60
2021/10/08 02:55:20;;;;;;;15.28;6.92;;;;;;;3.47;60.98;101661.50;1706858;82;22033;-61
2021/10/08 02:57:46;;;;;;;11.00;7.20;;;;;;;3.46;60.94;101664.50;1719214;82;20967;-59
2021/10/08 03:00:14;;;;;;;11.45;6.65;;;;;;;3.45;60.91;101664.06;1717132;82;21546;-59
2021/10/08 03:02:41;;;;;;;12.40;7.60;;;;;;;3.43;61.04;101660.99;1731033;81;21580;-61
2021/10/08 03:05:09;;;;;;;10.23;7.35;;;;;;;3.41;60.94;101666.56;1714189;82;21147;-60
2021/10/08 03:07:35;;;;;;;12.63;6.80;;;;;;;3.39;61.11;101667.86;1711599;82;21939;-60
2021/10/08 03:10:04;;;;;;;10.90;7.10;;;;;;;3.35;61.09;101668.63;1722072;81;21610;-61
2021/10/08 03:12:32;;;;;;;12.88;7.62;;;;;;;3.25;61.24;101655.88;1716150;82;21551;-60
2021/10/08 03:15:00;;;;;;;9.45;6.80;;;;;;;3.27;61.31;101662.41;1717803;82;21463;-61
2021/10/08 03:17:27;;;;;;;13.15;7.53;;;;;;;3.24;61.56;101668.44;1716807;82;21523;-60
2021/10/08 03:19:54;;;;;;;12.75;7.12;;;;;;;3.22;61.59;101672.73;1711603;82;21764;-60
2021/10/08 03:22:21;;;;;;;11.10;7.17;;;;;;;3.20;61.70;101673.53;1723555;82;21416;-60
2021/10/08 03:24:48;;;;;;;17.62;8.03;;;;;;;3.16;61.83;101667.81;1713674;82;21515;-60
2021/10/08 03:27:14;;;;;;;13.43;7.50;;;;;;;3.14;61.84;101672.98;1727387;82;21515;-60
2021/10/08 03:29:42;;;;;;;11.18;7.40;;;;;;;3.12;61.94;101677.27;1729125;82;21771;-60
2021/10/08 03:32:09;;;;;;;17.27;6.83;;;;;;;3.11;61.75;101679.00;1716042;82;21817;-60
2021/10/08 03:34:35;;;;;;;11.50;6.23;;;;;;;3.10;61.90;101676.37;1717481;82;21561;-60
2021/10/08 03:37:06;;;;;;;12.43;6.47;;;;;;;3.19;62.39;101675.69;1711855;82;21538;-60
2021/10/08 03:39:37;;;;;;;11.18;7.08;;;;;;;3.30;62.27;101687.17;1683455;82;21554;-64
2021/10/08 03:42:02;;;;;;;10.60;7.45;;;;;;;3.27;62.13;101689.70;1736017;80;21514;-61
2021/10/08 03:44:34;;;;;;;16.52;8.80;;;;;;;3.25;61.96;101691.41;1766490;80;21753;-60
2021/10/08 03:46:58;;;;;;;12.03;8.15;;;;;;;3.20;61.83;101687.42;1744298;80;21585;-60
2021/10/08 03:49:26;;;;;;;;;;;;;;;3.17;61.70;101690.38;1739877;80;21525;-60
2021/10/08 03:51:54;;;;;;;9.83;7.50;;;;;;;3.12;61.94;101694.17;1734328;80;20212;-61
2021/10/08 03:54:21;;;;;;;13.95;8.23;;;;;;;3.06;61.78;101695.35;1752709;80;21537;-61
2021/10/08 03:56:48;;;;;;;10.03;7.35;;;;;;;3.01;61.66;101691.77;1760357;80;21839;-61
2021/10/08 03:59:16;;;;;;;12.58;7.75;;;;;;;2.98;61.74;101693.89;1732161;80;21541;-61
2021/10/08 04:01:43;;;;;;;10.20;7.83;;;;;;;2.98;61.88;101690.43;1736707;80;21676;-61
2021/10/08 04:04:12;;;;;;;10.50;8.30;;;;;;;2.96;61.87;101689.09;1672498;83;21530;-61
2021/10/08 04:06:40;;;;;;;12.13;7.97;;;;;;;2.97;62.08;101688.23;1731729;80;21455;-61
2021/10/08 04:09:08;;;;;;;14.95;7.75;;;;;;;2.98;62.05;101692.59;1744712;80;21787;-61
2021/10/08 04:11:36;;;;;;;10.28;7.83;;;;;;;2.98;62.16;101691.30;1673594;83;21682;-61
2021/10/08 04:14:04;;;;;;;9.48;7.85;;;;;;;2.98;62.18;101692.59;1708825;82;21448;-60
2021/10/08 04:16:33;;;;;;;10.82;7.75;;;;;;;3.00;62.22;101696.10;1752096;80;21556;-61
2021/10/08 04:19:02;;;;;;;17.45;9.38;;;;;;;3.02;62.33;101700.91;1733725;80;21653;-61
2021/10/08 04:21:29;;;;;;;11.63;8.00;;;;;;;3.07;62.27;101695.39;1675408;83;21804;-61
2021/10/08 04:23:57;;;;;;;13.88;7.65;;;;;;;3.10;62.24;101692.83;1741200;80;21065;-60
2021/10/08 04:26:24;;;;;;;16.95;8.48;;;;;;;3.13;62.24;101697.23;1668955;83;20978;-59
2021/10/08 04:28:52;;;;;;;15.95;8.25;;;;;;;3.16;62.32;101693.38;1741431;80;21009;-59
2021/10/08 04:31:19;;;;;;;15.55;8.25;;;;;;;3.20;62.39;101698.22;1660618;85;21578;-60
2021/10/08 04:33:46;;;;;;;11.57;7.58;;;;;;;3.23;62.26;101695.27;1742828;80;21798;-59
2021/10/08 04:36:13;;;;;;;14.20;7.10;;;;;;;3.26;62.24;101694.04;1729969;80;21080;-59
2021/10/08 04:38:40;;;;;;;12.45;7.33;;;;;;;3.34;62.64;101694.19;1747735;80;20978;-60
2021/10/08 04:41:08;;;;;;;13.15;7.95;;;;;;;3.56;62.73;101699.38;1664165;83;20998;-60
2021/10/08 04:43:37;;;;;;;8.63;6.45;;;;;;;3.64;62.53;101699.09;1670503;84;21633;-59
2021/10/08 04:46:04;;;;;;;13.10;7.87;;;;;;;3.70;62.39;101690.52;1708154;82;22026;-59
2021/10/08 04:48:31;;;;;;;9.58;7.45;;;;;;;3.75;62.26;101698.00;1722538;82;21517;-59
2021/10/08 04:50:58;;;;;;;10.32;7.40;;;;;;;3.82;62.06;101700.27;1709880;82;20986;-59
2021/10/08 04:53:25;;;;;;;10.32;7.72;;;;;;;3.87;61.82;101701.23;1727412;80;21488;-61
2021/10/08 04:55:54;;;;;;;11.93;7.70;;;;;;;3.91;61.56;101699.13;1661501;85;21431;-59
2021/10/08 04:58:21;;;;;;;10.23;8.25;;;;;;;3.97;61.34;101698.36;1711271;82;21495;-59
2021/10/08 05:00:48;;;;;;;16.53;8.00;;;;;;;4.02;61.20;101696.28;1707938;82;21553;-59
2021/10/08 05:03:17;;;;;;;9.73;7.87;;;;;;;4.08;61.18;101705.92;1728049;82;21495;-60
2021/10/08 05:05:54;;;;;;;11.50;7.67;;;;;;;4.13;61.13;101706.02;1709646;82;21747;-59
2021/10/08 05:08:21;;;;;;;12.18;8.60;;;;;;;4.20;60.94;101710.45;1708010;82;21590;-59
2021/10/08 05:10:49;;;;;;;11.10;7.35;;;;;;;4.28;60.79;101710.17;1724076;82;21904;-60
2021/10/08 05:13:17;;;;;;;16.62;8.10;;;;;;;4.34;60.47;101714.59;1711989;82;27271;-60
2021/10/08 05:15:44;;;;;;;16.93;8.00;;;;;;;4.42;60.48;101711.67;1716114;82;20990;-59
2021/10/08 05:18:11;;;;;;;;;;;;;;;4.48;60.28;101711.36;1710151;82;21557;-62
2021/10/08 05:20:38;;;;;;;10.82;7.50;;;;;;;4.55;60.07;101716.22;1703356;82;20446;-61
2021/10/08 05:23:05;;;;;;;10.95;8.00;;;;;;;4.58;59.87;101712.38;1721368;82;21992;-62
2021/10/08 05:25:32;;;;;;;9.73;7.15;;;;;;;4.65;59.56;101714.62;1723007;82;21522;-62
2021/10/08 05:28:00;;;;;;;13.03;8.60;;;;;;;4.71;59.29;101717.74;1705198;82;28466;-62
2021/10/08 05:30:27;;;;;;;15.98;8.48;;;;;;;4.78;59.25;101710.03;1725461;82;21526;-62
2021/10/08 05:32:53;;;;;;;11.55;8.15;;;;;;;4.86;59.12;101712.34;1713342;82;21055;-61
2021/10/08 05:35:21;;;;;;;14.65;9.15;;;;;;;4.94;58.83;101711.57;1699244;82;22156;-61
2021/10/08 05:37:48;;;;;;;15.47;8.43;;;;;;;4.99;58.60;101714.69;1722189;82;21543;-61
2021/10/08 05:40:15;;;;;;;15.32;8.83;;;;;;;5.05;58.46;101707.38;1723167;80;21902;-62
2021/10/08 05:42:43;;;;;;;15.85;9.00;;;;;;;5.08;58.46;101713.91;1715333;81;21054;-62
2021/10/08 05:45:10;;;;;;;12.67;8.83;;;;;;;5.13;58.26;101710.94;1634550;84;21511;-64
2021/10/08 05:47:37;;;;;;;17.27;9.30;;;;;;;5.17;58.29;101716.64;1688868;83;21503;-63
2021/10/08 05:50:05;;;;;;;14.25;8.33;;;;;;;5.22;57.88;101721.93;1687832;83;21689;-63
2021/10/08 05:52:33;;;;;;;10.98;8.05;;;;;;;5.25;57.68;101723.25;1698475;81;21610;-64
2021/10/08 05:55:02;;;;;;;23.20;8.83;;;;;;;5.32;57.50;101725.52;1662683;84;21567;-65
2021/10/08 05:57:29;;;;;;;10.18;8.18;;;;;;;5.35;57.55;101727.73;1732025;81;21431;-65
2021/10/08 05:59:56;;;;;;;14.90;9.03;;;;;;;5.40;57.51;101728.64;1648087;84;21958;-66
2021/10/08 06:02:23;;;;;;;11.65;8.58;;;;;;;5.46;57.31;101726.13;1699385;81;21523;-66
2021/10/08 06:04:50;;;;;;;10.78;8.60;;;;;;;5.53;57.18;101733.58;1727481;80;21050;-64
2021/10/08 06:07:18;;;;;;;;;;;;;;;5.59;57.22;101725.81;1693777;82;21542;-64
2021/10/08 06:09:47;;;;;;;14.98;8.10;;;;;;;5.65;56.96;101731.13;1731023;80;20481;-65
2021/10/08 06:12:14;;;;;;;14.38;8.33;;;;;;;5.68;56.53;101731.57;1728818;80;22005;-65
2021/10/08 06:14:42;;;;;;;11.28;8.73;;;;;;;5.70;56.28;101735.07;1736075;80;21460;-67
2021/10/08 06:17:10;;;;;;;10.38;7.85;;;;;;;5.75;56.37;101731.22;1720881;81;21503;-66
2021/10/08 06:19:40;;;;;;;;;;;;;;;5.82;56.30;101732.61;1706019;81;21551;-68
2021/10/08 06:22:07;;;;;;;10.98;8.10;;;;;;;5.87;56.48;101724.80;1725467;81;20190;-67
2021/10/08 06:24:34;;;;;;;11.80;8.00;;;;;;;5.91;56.16;101730.93;1726147;81;22022;-70
2021/10/08 06:27:03;;;;;;;11.75;8.38;;;;;;;5.98;56.03;101722.34;1652980;85;21468;-67
2021/10/08 06:29:31;;;;;;;;;;;;;;;6.06;55.95;101727.63;1730453;81;21636;-67
2021/10/08 06:32:00;;;;;;;11.03;8.48;;;;;;;6.15;56.00;101731.63;1705278;81;20483;-69
2021/10/08 06:34:27;;;;;;;13.50;8.15;;;;;;;6.19;55.46;101728.17;1727412;80;21435;-69
2021/10/08 06:36:55;;;;;;;15.75;8.18;;;;;;;6.27;55.12;101726.93;1637856;86;21518;-67
2021/10/08 06:39:22;;;;;;;13.13;8.78;;;;;;;6.32;54.95;101722.63;1726282;81;21542;-67
2021/10/08 06:41:51;;;;;;;11.90;7.72;;;;;;;6.37;54.76;101719.62;1726692;80;21661;-67
2021/10/08 06:44:21;;;;;;;10.85;8.55;;;;;;;6.43;54.92;101717.92;1746393;80;21522;-68
2021/10/08 06:46:50;;;;;;;13.70;8.85;;;;;;;6.52;54.95;101718.87;1737637;80;21105;-67
2021/10/08 06:49:17;;;;;;;12.35;8.18;;;;;;;6.60;54.43;101722.39;1718184;80;21893;-67
2021/10/08 06:51:44;;;;;;;12.20;7.60;;;;;;;6.67;54.26;101721.58;1735442;80;21602;-68
2021/10/08 06:55:03;;;;;;;16.52;8.28;;;;;;;6.80;53.29;101719.48;1767183;78;22893;-67
2021/10/08 06:57:30;;;;;;;13.95;8.38;;;;;;;6.83;53.22;101720.78;1740886;80;21439;-65
2021/10/08 06:59:58;;;;;;;13.83;8.18;;;;;;;6.88;52.95;101711.67;1740811;80;21506;-68
2021/10/08 07:02:25;;;;;;;9.95;7.83;;;;;;;6.96;52.96;101714.33;1704562;81;21564;-63
2021/10/08 07:04:54;;;;;;;11.43;8.28;;;;;;;7.06;53.16;101712.63;1688155;83;21616;-67
2021/10/08 07:07:21;;;;;;;12.20;8.13;;;;;;;7.13;53.08;101710.05;1696801;83;21772;-68
2021/10/08 07:09:50;;;;;;;10.72;7.45;;;;;;;7.24;52.82;101717.08;1693052;83;21053;-68
2021/10/08 07:12:17;;;;;;;9.53;7.57;;;;;;;7.33;52.24;101717.12;1705588;81;22114;-69
2021/10/08 07:14:44;;;;;;;9.13;7.75;;;;;;;7.43;52.22;101708.86;1696043;83;21802;-66
2021/10/08 07:17:12;;;;;;;10.80;7.65;;;;;;;7.52;52.19;101711.51;1700372;81;21550;-62
2021/10/08 07:19:39;;;;;;;17.90;9.03;;;;;;;7.64;51.93;101710.66;1670363;83;21604;-62
2021/10/08 07:22:06;;;;;;;8.30;7.40;;;;;;;7.73;51.30;101709.37;1673118;84;21588;-61
2021/10/08 07:24:34;;;;;;;12.18;6.97;;;;;;;7.78;50.84;101712.44;1662318;84;21974;-62
2021/10/08 07:27:01;;;;;;;14.38;7.55;;;;;;;7.86;50.66;101715.51;1703916;83;21628;-61
2021/10/08 07:29:30;;;;;;;9.73;7.15;;;;;;;7.95;50.60;101712.45;1693225;83;21637;-62
2021/10/08 07:31:59;;;;;;;12.70;7.72;;;;;;;8.05;50.32;101710.71;1691047;82;21510;-62
2021/10/08 07:34:25;;;;;;;10.80;6.90;;;;;;;8.15;50.44;101705.03;1692992;82;21569;-61
2021/10/08 07:36:53;;;;;;;11.55;7.10;;;;;;;8.24;50.01;101702.86;1671052;83;21914;-62
2021/10/08 07:39:22;;;;;;;8.85;7.50;;;;;;;8.34;49.83;101709.41;1697537;83;21448;-66
2021/10/08 07:41:49;;;;;;;16.10;7.58;;;;;;;8.43;49.44;101703.30;1704895;82;21514;-63
2021/10/08 07:44:17;;;;;;;8.03;7.08;;;;;;;8.51;49.23;101704.60;1683409;83;21546;-62
2021/10/08 07:46:46;;;;;;;12.15;6.92;;;;;;;8.63;49.17;101703.73;1684992;83;21542;-62
2021/10/08 07:49:12;;;;;;;9.60;7.10;;;;;;;8.71;48.77;101701.51;1703486;82;22167;-62
2021/10/08 07:51:39;;;;;;;10.30;6.77;;;;;;;8.80;48.49;101698.00;1695776;82;21569;-62
2021/10/08 07:54:08;;;;;;;13.27;6.27;;;;;;;8.90;48.47;101697.53;1687514;81;21514;-62
2021/10/08 07:56:35;;;;;;;11.45;7.22;;;;;;;8.98;48.07;101704.06;1684936;84;21547;-65
2021/10/08 07:59:03;;;;;;;6.63;6.03;;;;;;;9.06;47.77;101704.89;1682692;83;21510;-63
2021/10/08 08:01:32;;;;;;;7.97;5.87;;;;;;;9.15;47.62;101700.93;1673940;82;21689;-64
2021/10/08 08:04:00;;;;;;;9.80;6.12;;;;;;;9.26;47.34;101699.58;1688259;82;21793;-66
2021/10/08 08:06:27;;;;;;;7.22;6.17;;;;;;;9.35;47.24;101700.40;1684492;82;21578;-64
2021/10/08 08:08:54;;;;;;;8.95;5.67;;;;;;;9.46;46.79;101703.42;1680278;82;21508;-65
2021/10/08 08:11:20;;;;;;;13.43;6.22;;;;;;;9.54;46.34;101701.63;1691431;82;21660;-64
2021/10/08 08:13:47;;;;;;;9.90;5.50;;;;;;;9.63;46.09;101695.00;1695620;81;22025;-66
2021/10/08 08:16:14;;;;;;;10.88;5.42;;;;;;;9.70;45.24;101695.41;1683770;84;21550;-65
2021/10/08 08:18:41;;;;;;;12.93;4.70;;;;;;;9.78;44.79;101691.41;1683360;83;21613;-65
2021/10/08 08:21:08;;;;;;;7.27;4.93;;;;;;;9.81;43.68;101693.13;1691854;81;21436;-64
2021/10/08 08:23:36;;;;;;;6.00;4.70;;;;;;;9.86;43.86;101691.35;1698813;82;21605;-67
2021/10/08 08:26:03;;;;;;;7.22;4.08;;;;;;;9.93;43.13;101697.86;1688774;82;22150;-64
2021/10/08 08:28:30;;;;;;;5.10;4.05;;;;;;;9.99;42.86;101696.95;1688975;82;21428;-65
2021/10/08 08:30:57;;;;;;;8.77;4.47;;;;;;;10.06;42.56;101687.27;1685615;84;21050;-63
2021/10/08 08:33:26;;;;;;;7.53;3.87;;;;;;;10.13;42.56;101686.30;1688837;83;21849;-61
2021/10/08 08:35:53;;;;;;;7.55;3.58;;;;;;;10.23;42.44;101684.50;1708821;81;22349;-67
2021/10/08 08:38:24;;;;;;;4.60;4.00;;;;;;;10.34;41.92;101678.73;1716459;81;22806;-64
2021/10/08 08:40:50;;;;;;;8.20;4.47;;;;;;;10.45;42.06;101684.77;1730186;80;21520;-65
2021/10/08 08:43:17;;;;;;;13.15;3.65;;;;;;;10.57;41.18;101674.97;1721648;80;21443;-64
2021/10/08 08:45:44;;;;;;;5.72;4.22;;;;;;;10.68;40.60;101684.52;1695739;82;21558;-64
2021/10/08 08:48:12;;;;;;;6.72;4.37;;;;;;;10.78;40.46;101683.11;1693334;82;21633;-65
2021/10/08 08:50:44;;;;;;;11.93;4.65;;;;;;;10.86;39.69;101683.42;1675496;82;22171;-65
2021/10/08 08:53:11;;;;;;;5.85;4.03;;;;;;;10.94;39.58;101676.75;1722821;80;21905;-66
2021/10/08 08:55:38;;;;;;;6.28;4.10;;;;;;;11.03;38.96;101677.09;1728855;80;21476;-66
2021/10/08 08:58:05;;;;;;;5.65;3.80;;;;;;;11.07;39.31;101677.48;1722143;81;21524;-63
2021/10/08 09:00:32;;;;;;;5.67;3.90;;;;;;;11.17;39.23;101673.86;1680215;82;21507;-66
2021/10/08 09:03:02;;;;;;;5.67;3.05;;;;;;;11.27;38.78;101679.41;1718624;81;21786;-66
2021/10/08 09:05:32;;;;;;;6.20;2.95;;;;;;;11.35;38.41;101672.72;1713431;81;21527;-63
2021/10/08 09:08:06;;;;;;;4.95;2.72;;;;;;;11.43;37.38;101659.45;1691132;82;21070;-65
2021/10/08 09:10:35;;;;;;;3.70;2.37;;;;;;;11.48;36.80;101661.13;1686594;82;21017;-65
2021/10/08 09:13:04;;;;;;;2.92;2.20;;;;;;;11.59;36.67;101660.11;1704832;82;21508;-66
2021/10/08 09:15:56;;;;;;;5.15;2.40;;;;;;;11.68;35.93;101659.98;1716487;81;21598;-66
2021/10/08 09:18:25;;;;;;;6.22;2.12;;;;;;;11.76;35.95;101658.53;1716918;81;21412;-65
2021/10/08 09:21:09;;;;;;;4.05;2.37;;;;;;;11.84;34.79;101654.00;1720184;81;21523;-68
2021/10/08 09:23:46;;;;;;;4.53;2.80;;;;;;;11.90;34.76;101649.97;1726349;80;21500;-66
2021/10/08 09:26:25;;;;;;;4.00;2.25;;;;;;;11.95;34.58;101644.19;1729055;80;21468;-63
2021/10/08 09:29:00;;;;;;;3.67;2.45;;;;;;;11.99;34.33;101635.33;1691806;80;21511;-65
2021/10/08 09:31:40;;;;;;;7.90;2.40;;;;;;;12.03;34.05;101637.47;1722762;80;21459;-64
2021/10/08 09:34:26;;;;;;;3.10;2.45;;;;;;;12.10;34.52;101635.15;1722060;80;21432;-64
2021/10/08 09:37:05;;;;;;;6.75;2.58;;;;;;;12.20;33.85;101638.48;1724423;81;21420;-63
2021/10/08 09:39:34;;;;;;;2.45;2.25;;;;;;;12.27;33.87;101624.30;1699737;81;21502;-66
2021/10/08 09:42:09;;;;;;;7.92;2.30;;;;;;;12.37;33.98;101627.17;1729402;81;21695;-65
2021/10/08 09:44:50;;;;;;;8.30;2.85;;;;;;;12.45;33.66;101623.96;1732315;81;21436;-66
2021/10/08 09:47:19;;;;;;;4.45;2.77;;;;;;;12.52;33.56;101616.78;1709170;81;21451;-65
2021/10/08 09:49:48;;;;;;;3.77;2.45;;;;;;;12.60;33.28;101624.13;1725028;81;21511;-66
2021/10/08 09:52:30;;;;;;;5.00;2.52;;;;;;;12.71;33.24;101619.06;1719052;80;21475;-65
2021/10/08 09:55:06;;;;;;;3.90;2.45;;;;;;;12.82;33.05;101616.61;1725038;81;21737;-65
2021/10/08 09:57:53;;;;;;;4.75;2.27;;;;;;;12.88;32.74;101614.30;1744734;80;21041;-63
2021/10/08 10:00:46;;;;;;;7.85;1.98;;;;;;;13.00;32.10;101626.39;1729302;80;21491;-66
2021/10/08 10:03:15;;;;;;;3.72;1.80;;;;;;;13.08;31.75;101624.91;1685364;82;21463;-67
2021/10/08 10:05:44;;;;;;;4.90;1.92;;;;;;;13.18;31.45;101615.86;1690251;82;21467;-66
2021/10/08 10:08:11;;;;;;;7.28;2.42;;;;;;;13.23;31.16;101621.46;1680232;83;21724;-68
2021/10/08 10:10:39;;;;;;;8.40;2.60;;;;;;;13.25;30.54;101618.79;1667334;84;21498;-66
2021/10/08 10:13:08;;;;;;;4.62;2.02;;;;;;;13.25;30.86;101611.72;1692235;82;21006;-66
2021/10/08 10:15:35;;;;;;;2.30;2.10;;;;;;;13.28;30.89;101613.45;1708617;82;21582;-69
2021/10/08 10:18:11;;;;;;;5.00;2.50;;;;;;;13.31;30.66;101611.21;1715571;80;21532;-67
2021/10/08 10:20:41;;;;;;;7.80;2.83;;;;;;;13.27;31.02;101618.30;1717925;82;21769;-69
2021/10/08 10:23:08;;;;;;;10.40;3.02;;;;;;;13.26;31.19;101609.98;1708526;82;21470;-68
2021/10/08 10:25:35;;;;;;;10.28;3.00;;;;;;;13.36;31.77;101604.92;1719053;81;21542;-69
2021/10/08 10:28:04;;;;;;;6.55;2.92;;;;;;;13.36;31.77;101604.92;1715029;82;21056;-69
2021/10/08 10:30:30;;;;;;;3.12;2.60;;;;;;;13.40;31.15;101607.04;1677696;83;21006;-66
2021/10/08 10:32:58;;;;;;;5.72;2.92;;;;;;;13.38;31.37;101600.92;1681236;83;21666;-68
2021/10/08 10:35:50;;;;;;;7.30;2.95;;;;;;;13.46;31.40;101592.81;1684300;83;21476;-66
2021/10/08 10:38:37;;;;;;;6.00;2.37;;;;;;;13.53;31.23;101582.52;1664228;83;21481;-69
2021/10/08 10:41:15;;;;;;;7.50;2.75;;;;;;;13.59;30.47;101607.01;1686811;83;21634;-68
2021/10/08 10:43:45;;;;;;;3.40;3.00;;;;;;;13.55;30.27;101593.45;1685806;83;21449;-67
2021/10/08 10:46:41;;;;;;;4.00;2.00;;;;;;;13.55;30.41;101585.53;1680044;83;21767;-68
2021/10/08 10:52:08;;;;;;;2.98;2.02;;;;;;;13.66;29.88;101575.16;1692044;82;21011;-68
2021/10/08 10:54:52;;;;;;;4.50;2.20;;;;;;;13.63;30.28;101583.55;1681927;83;21580;-68
2021/10/08 10:57:31;;;;;;;2.70;2.37;;;;;;;13.70;30.02;101591.36;1737506;79;21013;-66
2021/10/08 11:00:24;;;;;;;8.13;2.42;;;;;;;13.73;29.92;101584.66;1722704;81;21713;-70
2021/10/08 11:03:18;;;;;;;6.60;2.25;;;;;;;13.71;29.98;101576.78;1737944;80;21016;-68
2021/10/08 11:06:08;;;;;;;4.45;2.00;;;;;;;13.76;29.96;101566.94;1726691;80;21418;-69
2021/10/08 11:08:39;;;;;;;8.33;2.15;;;;;;;13.80;30.00;101574.34;1735556;80;21578;-67
2021/10/08 11:11:16;;;;;;;7.72;1.75;;;;;;;13.80;29.28;101574.34;1727302;80;21021;-68
2021/10/08 11:13:43;;;;;;;4.45;1.90;;;;;;;13.78;28.79;101573.52;1730315;80;21703;-68
2021/10/08 11:16:11;;;;;;;5.20;1.80;;;;;;;13.81;28.95;101565.52;1729315;80;21547;-69
2021/10/08 11:18:46;;;;;;;5.60;1.60;;;;;;;13.89;29.06;101582.50;1674759;83;21493;-68
2021/10/08 11:21:32;;;;;;;1.98;1.42;;;;;;;13.96;28.50;101575.69;1686580;82;21543;-69
2021/10/08 11:24:03;;;;;;;5.10;1.60;;;;;;;14.05;28.02;101565.77;1727575;81;21499;-67
2021/10/08 11:26:30;;;;;;;5.60;2.02;;;;;;;14.12;28.04;101566.88;1718442;82;21789;-66
2021/10/08 11:28:59;;;;;;;6.70;1.70;;;;;;;14.21;28.36;101560.48;1685061;82;28542;-67
2021/10/08 11:31:25;;;;;;;3.92;1.87;;;;;;;14.28;27.98;101560.73;1715092;81;20985;-66
2021/10/08 11:33:55;;;;;;;5.75;1.60;;;;;;;14.33;27.74;101565.88;1717098;80;21432;-68
2021/10/08 11:36:29;;;;;;;4.15;1.77;;;;;;;14.34;27.79;101560.55;1719830;81;21477;-69
2021/10/08 11:39:17;;;;;;;3.20;1.98;;;;;;;14.42;27.37;101552.39;1690652;83;21450;-71
2021/10/08 11:42:15;;;;;;;2.02;1.67;;;;;;;14.42;26.84;101555.05;1720751;81;21440;-68